Time;durP1;ratioP1;P1;durP2;ratioP2;P2;SDS_P1;SDS_P2;PMS_P1;PMS_P2;Temp;Humidity;BMP_temperature;BMP_pressure;BME280_temperature;BME280_humidity;BME280_pressure;Samples;Min_cycle;Max_cycle;Signal;HPM_P1;HPM_P2
2022/06/09 00:01:02;;;;;;;5.53;1.60;;;;;;;17.81;86.00;99995.09;5084788;28;20215;-70
2022/06/09 00:03:34;;;;;;;7.13;2.53;;;;;;;17.77;86.82;100005.41;5085167;28;20194;-70
2022/06/09 00:06:02;;;;;;;5.63;2.13;;;;;;;17.85;85.98;100004.41;5085996;28;20250;-70
2022/06/09 00:08:31;;;;;;;4.53;1.60;;;;;;;17.88;85.30;100012.00;5082627;28;20207;-71
2022/06/09 00:11:06;;;;;;;5.27;1.80;;;;;;;17.87;85.73;100015.72;5085839;28;20375;-70
2022/06/09 00:13:35;;;;;;;4.07;1.83;;;;;;;17.87;85.34;100019.22;5083916;28;20521;-71
2022/06/09 00:16:03;;;;;;;6.30;2.40;;;;;;;17.85;84.86;100021.31;5085211;28;20687;-70
2022/06/09 00:18:31;;;;;;;3.77;2.03;;;;;;;17.83;85.30;100020.69;5083007;28;20302;-69
2022/06/09 00:20:59;;;;;;;4.37;2.10;;;;;;;17.86;84.71;100019.44;5086113;28;20290;-71
2022/06/09 00:23:27;;;;;;;6.37;2.37;;;;;;;17.85;85.01;100024.00;5082791;28;20206;-71
2022/06/09 00:25:54;;;;;;;7.33;2.73;;;;;;;17.77;85.68;100020.66;5085218;28;20303;-71
2022/06/09 00:28:23;;;;;;;8.47;2.20;;;;;;;17.76;86.46;100019.03;5082099;28;20206;-71
2022/06/09 00:30:51;;;;;;;8.30;2.20;;;;;;;17.76;86.04;100021.72;5079516;28;20233;-71
2022/06/09 00:33:20;;;;;;;7.43;2.57;;;;;;;17.78;86.15;100028.50;5082857;28;20262;-70
2022/06/09 00:35:50;;;;;;;6.03;2.33;;;;;;;17.75;86.25;100022.75;5084137;28;20571;-70
2022/06/09 00:38:20;;;;;;;5.27;2.20;;;;;;;17.74;85.91;100034.50;5084658;28;20210;-70
2022/06/09 00:40:47;;;;;;;4.80;2.33;;;;;;;17.77;85.52;100042.13;5084516;28;20221;-70
2022/06/09 00:43:15;;;;;;;5.73;2.60;;;;;;;17.77;86.47;100042.94;5083719;28;20205;-70
2022/06/09 00:45:50;;;;;;;5.73;2.47;;;;;;;17.77;86.67;100042.13;5085825;28;20234;-70
2022/06/09 00:48:24;;;;;;;6.97;2.57;;;;;;;17.74;86.48;100037.19;5083266;28;20198;-70
2022/06/09 00:50:58;;;;;;;6.33;3.10;;;;;;;17.75;86.04;100033.47;5086470;28;20229;-70
2022/06/09 00:53:29;;;;;;;5.77;3.00;;;;;;;17.74;85.73;100032.66;5084291;28;20315;-70
2022/06/09 00:56:00;;;;;;;5.90;3.07;;;;;;;17.74;85.47;100031.81;5086391;28;20677;-70
2022/06/09 00:58:33;;;;;;;5.33;2.90;;;;;;;17.66;85.93;100033.69;5085836;28;21793;-70
2022/06/09 01:01:07;;;;;;;5.67;2.73;;;;;;;17.66;85.79;100030.16;5090423;28;20207;-70
2022/06/09 01:03:43;;;;;;;6.73;2.63;;;;;;;17.63;85.91;100031.41;5087992;28;20572;-70
2022/06/09 01:06:18;;;;;;;5.67;2.60;;;;;;;17.55;86.48;100033.41;5087280;28;20199;-70
2022/06/09 01:08:59;;;;;;;7.03;2.73;;;;;;;17.46;85.61;100035.47;5086662;28;20694;-70
2022/06/09 01:11:29;;;;;;;4.30;2.60;;;;;;;17.29;87.06;100026.97;5085661;28;20277;-70
2022/06/09 01:13:59;;;;;;;7.17;2.93;;;;;;;17.28;88.52;100035.19;5085151;28;20237;-70
2022/06/09 01:16:37;;;;;;;5.87;3.23;;;;;;;17.32;88.05;100032.97;5086126;28;20283;-70
2022/06/09 01:19:23;;;;;;;10.30;3.57;;;;;;;17.35;87.09;100038.72;5087140;28;20236;-70
2022/06/09 01:22:25;;;;;;;6.57;3.47;;;;;;;17.32;87.00;100043.69;5083622;28;20213;-70
2022/06/09 01:25:37;;;;;;;5.33;2.80;;;;;;;17.26;87.86;100039.94;5084062;28;20238;-70
2022/06/09 01:28:37;;;;;;;7.83;3.80;;;;;;;17.27;86.55;100045.09;5053781;28;20215;-70
2022/06/09 01:31:16;;;;;;;4.90;3.40;;;;;;;17.30;86.37;100044.69;5055001;28;20225;-70
2022/06/09 01:33:52;;;;;;;15.10;3.80;;;;;;;17.30;86.32;100052.75;5082948;28;20217;-70
2022/06/09 01:36:24;;;;;;;8.23;3.23;;;;;;;17.27;86.83;100052.31;5080900;28;20242;-70
2022/06/09 01:38:55;;;;;;;6.53;3.37;;;;;;;17.29;87.57;100050.25;5082692;28;20219;-70
2022/06/09 01:41:32;;;;;;;8.87;3.50;;;;;;;17.28;86.99;100049.44;5080171;28;20217;-70
2022/06/09 01:44:02;;;;;;;7.90;3.17;;;;;;;17.27;86.64;100058.50;5081948;28;20217;-70
2022/06/09 01:46:37;;;;;;;5.47;3.10;;;;;;;17.29;86.29;100058.31;5083059;28;20222;-70
2022/06/09 01:49:10;;;;;;;10.23;3.40;;;;;;;17.36;85.54;100061.81;5084159;28;20265;-70
2022/06/09 01:51:43;;;;;;;7.90;3.87;;;;;;;17.34;84.82;100061.19;5080238;28;20207;-69
2022/06/09 01:54:16;;;;;;;6.73;3.03;;;;;;;17.36;85.25;100059.13;5082512;28;20678;-69
2022/06/09 01:56:49;;;;;;;8.60;3.03;;;;;;;17.26;85.52;100062.19;5083894;28;20206;-70
2022/06/09 01:59:24;;;;;;;6.93;2.87;;;;;;;17.17;85.52;100060.72;5080036;28;20199;-69
2022/06/09 02:01:57;;;;;;;3.97;2.37;;;;;;;17.20;85.28;100067.53;5081783;28;20215;-70
2022/06/09 02:04:33;;;;;;;6.00;2.77;;;;;;;17.19;84.80;100060.53;5079830;28;20210;-69
2022/06/09 02:07:07;;;;;;;6.33;2.37;;;;;;;17.18;84.69;100053.50;5081516;28;20241;-70
2022/06/09 02:09:38;;;;;;;6.47;2.30;;;;;;;17.09;84.47;100058.22;5083969;28;20290;-69
2022/06/09 02:12:10;;;;;;;5.33;2.10;;;;;;;17.09;83.89;100063.56;5083738;28;20305;-69
2022/06/09 02:14:47;;;;;;;7.77;2.20;;;;;;;17.15;83.48;100064.66;5081810;28;20257;-70
2022/06/09 02:17:17;;;;;;;6.13;2.00;;;;;;;17.11;83.55;100060.72;5081645;28;20293;-70
2022/06/09 02:19:50;;;;;;;7.57;2.47;;;;;;;17.07;84.17;100064.78;5079082;28;20613;-70
2022/06/09 02:22:20;;;;;;;7.43;1.67;;;;;;;17.07;84.80;100065.63;5082587;28;20286;-70
2022/06/09 02:24:48;;;;;;;6.10;1.97;;;;;;;17.10;84.72;100069.75;5083274;28;20598;-70
2022/06/09 02:27:15;;;;;;;6.27;2.30;;;;;;;17.15;83.29;100070.81;5083181;28;20601;-70
2022/06/09 02:29:43;;;;;;;9.27;2.03;;;;;;;17.06;82.91;100068.53;5084669;28;20229;-70
2022/06/09 02:32:11;;;;;;;4.93;1.80;;;;;;;17.03;83.58;100072.41;5082499;28;20302;-70
2022/06/09 02:34:40;;;;;;;4.80;1.80;;;;;;;17.03;84.01;100071.59;5081910;28;20236;-70
2022/06/09 02:37:08;;;;;;;7.20;2.03;;;;;;;17.10;83.58;100072.44;5081770;28;20244;-70
2022/06/09 02:39:36;;;;;;;9.30;1.90;;;;;;;17.02;83.17;100064.59;5080412;28;20309;-71
2022/06/09 02:42:07;;;;;;;9.60;2.03;;;;;;;16.91;84.73;100077.50;5079539;28;20313;-70
2022/06/09 02:44:34;;;;;;;4.17;1.90;;;;;;;16.90;84.86;100073.16;5078734;28;20202;-70
2022/06/09 02:47:02;;;;;;;8.57;1.93;;;;;;;16.86;84.81;100076.47;5086499;28;20303;-70
2022/06/09 02:49:30;;;;;;;10.43;2.40;;;;;;;16.86;85.03;100076.47;5081451;28;20237;-71
2022/06/09 02:51:59;;;;;;;5.17;2.43;;;;;;;16.87;84.92;100078.13;5083347;28;20290;-71
2022/06/09 02:54:27;;;;;;;6.17;2.60;;;;;;;16.83;84.81;100076.84;5080064;28;20291;-70
2022/06/09 02:56:55;;;;;;;9.77;2.93;;;;;;;16.78;84.29;100085.50;5083551;28;20206;-70
2022/06/09 02:59:23;;;;;;;6.10;2.77;;;;;;;16.73;84.67;100090.59;5082696;28;20238;-70
2022/06/09 03:01:50;;;;;;;5.77;2.77;;;;;;;16.74;84.64;100089.56;5082346;28;20228;-70
2022/06/09 03:04:18;;;;;;;9.27;2.87;;;;;;;16.75;85.09;100090.41;5083109;28;20206;-70
2022/06/09 03:06:46;;;;;;;7.27;2.67;;;;;;;16.74;85.08;100089.56;5085820;28;20203;-70
2022/06/09 03:09:15;;;;;;;6.30;3.00;;;;;;;16.70;85.11;100093.69;5086156;28;20654;-70
2022/06/09 03:11:43;;;;;;;7.57;3.20;;;;;;;16.72;84.87;100094.28;5086979;28;20257;-70
2022/06/09 03:14:11;;;;;;;11.17;3.90;;;;;;;16.77;84.41;100091.88;5087966;28;20686;-71
2022/06/09 03:16:39;;;;;;;8.77;2.80;;;;;;;16.82;83.72;100092.09;5088701;28;20214;-71
2022/06/09 03:19:07;;;;;;;9.03;3.30;;;;;;;16.87;84.10;100089.66;5090852;28;20217;-71
2022/06/09 03:21:35;;;;;;;10.20;3.50;;;;;;;16.91;84.00;100101.59;5088461;28;20644;-71
2022/06/09 03:24:03;;;;;;;7.80;2.70;;;;;;;16.93;82.76;100096.88;5089178;28;20202;-70
2022/06/09 03:26:32;;;;;;;6.43;3.47;;;;;;;16.88;83.55;100102.03;5088037;28;20219;-71
2022/06/09 03:29:11;;;;;;;11.73;3.57;;;;;;;16.87;83.87;100096.88;5084203;28;20722;-71
2022/06/09 03:31:38;;;;;;;7.47;3.13;;;;;;;16.88;83.57;100103.88;5085018;28;20238;-71
2022/06/09 03:34:06;;;;;;;7.33;2.97;;;;;;;16.90;82.94;100105.31;5084211;28;20615;-71
2022/06/09 03:36:34;;;;;;;4.77;2.93;;;;;;;16.87;82.60;100107.56;5083321;28;20661;-71
2022/06/09 03:39:02;;;;;;;6.10;2.70;;;;;;;16.89;83.03;100113.53;5086725;28;20214;-70
2022/06/09 03:41:30;;;;;;;6.40;2.80;;;;;;;16.91;83.26;100108.81;5081907;28;20207;-71
2022/06/09 03:44:05;;;;;;;7.07;3.03;;;;;;;16.97;82.78;100109.91;5082641;28;20207;-71
2022/06/09 03:46:32;;;;;;;7.17;2.50;;;;;;;17.04;82.23;100108.06;5083287;28;20260;-71
2022/06/09 03:49:02;;;;;;;6.80;2.63;;;;;;;17.03;81.83;100107.25;5085525;28;20290;-69
2022/06/09 03:51:30;;;;;;;7.57;2.77;;;;;;;16.99;81.92;100107.81;5083593;28;20286;-69
2022/06/09 03:53:57;;;;;;;6.60;1.97;;;;;;;16.91;82.19;100106.97;5084780;28;20209;-68
2022/06/09 03:56:25;;;;;;;5.87;2.53;;;;;;;16.96;81.89;100114.44;5081879;28;20648;-69
2022/06/09 03:58:53;;;;;;;5.47;1.90;;;;;;;16.88;82.37;100118.09;5086126;28;20272;-69
2022/06/09 04:01:23;;;;;;;6.77;1.93;;;;;;;16.80;82.44;100131.63;5083401;28;20234;-69
2022/06/09 04:03:50;;;;;;;7.40;2.27;;;;;;;16.77;82.52;100126.66;5085504;28;20206;-69
2022/06/09 04:06:21;;;;;;;6.43;2.53;;;;;;;16.76;82.26;100135.72;5084615;28;20241;-69
2022/06/09 04:08:51;;;;;;;5.57;1.70;;;;;;;16.77;82.97;100145.41;5083617;28;21455;-70
2022/06/09 04:11:20;;;;;;;7.50;1.83;;;;;;;16.84;82.80;100138.25;5083958;28;20559;-70
2022/06/09 04:13:48;;;;;;;8.53;2.30;;;;;;;16.93;82.42;100146.94;5085630;28;20202;-70
2022/06/09 04:16:23;;;;;;;5.67;2.13;;;;;;;16.95;82.18;100144.91;5086796;28;20602;-70
2022/06/09 04:18:52;;;;;;;6.20;1.90;;;;;;;16.97;81.95;100144.72;5086789;28;20285;-70
2022/06/09 04:21:20;;;;;;;5.97;2.10;;;;;;;17.03;81.75;100146.59;5084933;28;20310;-70
2022/06/09 04:23:49;;;;;;;10.17;2.87;;;;;;;17.00;82.55;100155.84;5083708;28;20213;-70
2022/06/09 04:26:19;;;;;;;6.33;2.30;;;;;;;17.03;83.05;100149.28;5076585;28;20300;-70
2022/06/09 04:28:47;;;;;;;5.37;2.77;;;;;;;17.07;82.16;100155.88;5080926;28;20209;-70
2022/06/09 04:31:15;;;;;;;6.23;2.90;;;;;;;17.07;82.45;100161.22;5080403;28;20318;-70
2022/06/09 04:33:45;;;;;;;8.37;3.17;;;;;;;17.12;81.65;100153.44;5082564;28;20639;-69
2022/06/09 04:36:16;;;;;;;5.60;2.90;;;;;;;17.13;81.53;100158.59;5080101;28;20567;-70
2022/06/09 04:38:44;;;;;;;6.87;3.40;;;;;;;17.08;81.92;100165.56;5080864;28;20750;-70
2022/06/09 04:41:14;;;;;;;8.00;3.70;;;;;;;17.08;81.02;100170.91;5081708;28;20218;-70
2022/06/09 04:43:45;;;;;;;5.90;3.53;;;;;;;17.04;81.51;100180.41;5082183;28;20234;-70
2022/06/09 04:46:15;;;;;;;9.13;3.87;;;;;;;17.04;80.77;100177.72;5081724;28;20213;-70
2022/06/09 04:48:45;;;;;;;9.23;3.87;;;;;;;17.09;80.06;100186.81;5080143;28;20207;-70
2022/06/09 04:51:16;;;;;;;7.60;3.20;;;;;;;17.06;80.55;100194.44;5063317;28;20287;-69
2022/06/09 04:53:45;;;;;;;7.27;2.80;;;;;;;17.00;80.54;100190.66;5069555;28;20203;-69
2022/06/09 04:56:14;;;;;;;9.37;3.00;;;;;;;17.01;81.12;100192.31;5067605;28;20266;-69
2022/06/09 04:58:43;;;;;;;10.90;3.23;;;;;;;17.02;80.62;100202.00;5066394;28;20246;-69
2022/06/09 05:01:18;;;;;;;11.27;3.13;;;;;;;17.01;80.23;100208.38;5065067;28;20230;-69
2022/06/09 05:03:49;;;;;;;6.63;3.03;;;;;;;17.08;80.29;100200.41;5067148;28;20336;-69
2022/06/09 05:06:17;;;;;;;6.30;3.10;;;;;;;17.13;79.99;100212.19;5068770;28;20302;-69
2022/06/09 05:08:45;;;;;;;5.30;3.20;;;;;;;17.17;80.33;100209.94;5067373;28;20227;-69
2022/06/09 05:11:13;;;;;;;6.83;2.90;;;;;;;17.16;79.65;100217.13;5066731;28;20657;-69
2022/06/09 05:13:41;;;;;;;10.17;3.07;;;;;;;17.14;79.53;100216.53;5065121;28;20277;-69
2022/06/09 05:16:09;;;;;;;8.73;3.20;;;;;;;17.15;79.66;100215.47;5064557;28;20257;-71
2022/06/09 05:18:38;;;;;;;9.67;3.17;;;;;;;17.19;80.01;100223.97;5067544;28;20551;-70
2022/06/09 05:21:09;;;;;;;5.43;2.73;;;;;;;17.21;79.95;100214.72;5064502;28;20257;-70
2022/06/09 05:23:38;;;;;;;7.40;2.67;;;;;;;17.19;80.07;100218.59;5059585;28;20224;-70
2022/06/09 05:26:07;;;;;;;9.30;2.83;;;;;;;17.20;80.02;100217.59;5062719;28;20278;-70
2022/06/09 05:28:35;;;;;;;6.10;2.50;;;;;;;17.23;79.84;100223.38;5060899;28;20570;-70
2022/06/09 05:31:03;;;;;;;10.77;2.90;;;;;;;17.28;78.91;100225.47;5064652;28;20587;-69
2022/06/09 05:33:31;;;;;;;9.20;3.30;;;;;;;17.24;78.69;100238.41;5060569;28;20282;-70
2022/06/09 05:35:59;;;;;;;9.47;3.23;;;;;;;17.29;78.45;100240.53;5062715;28;20246;-71
2022/06/09 05:46:46;;;;;;;7.10;2.40;;;;;;;17.46;75.80;100236.50;5061187;28;20298;-70
2022/06/09 05:49:24;;;;;;;6.17;2.10;;;;;;;17.51;76.31;100246.59;5062698;28;20234;-69
2022/06/09 05:51:52;;;;;;;8.43;1.90;;;;;;;17.59;76.51;100258.00;5083345;28;20213;-69
2022/06/09 05:54:22;;;;;;;7.97;1.80;;;;;;;17.64;74.98;100258.28;5082630;28;20211;-70
2022/06/09 05:56:50;;;;;;;7.10;1.83;;;;;;;17.74;73.77;100267.81;5081799;28;20686;-70
2022/06/09 05:59:19;;;;;;;13.23;2.07;;;;;;;17.77;73.40;100262.03;5083454;28;20257;-70
2022/06/09 06:01:47;;;;;;;9.10;2.03;;;;;;;17.84;73.14;100279.00;5081065;28;20662;-69
2022/06/09 06:04:16;;;;;;;9.30;1.97;;;;;;;17.85;72.65;100275.28;5082845;28;20229;-70
2022/06/09 06:06:43;;;;;;;6.23;1.60;;;;;;;17.87;71.61;100273.22;5083574;28;20554;-68
2022/06/09 06:09:13;;;;;;;7.37;2.10;;;;;;;17.85;70.39;100273.44;5083853;28;20626;-69
2022/06/09 06:11:43;;;;;;;8.73;2.10;;;;;;;17.93;70.18;100280.47;5084010;28;20218;-68
2022/06/09 06:14:12;;;;;;;7.83;2.10;;;;;;;18.00;70.56;100286.69;5082221;28;20301;-70
2022/06/09 06:16:41;;;;;;;9.47;1.93;;;;;;;18.00;70.59;100289.38;5081084;28;20660;-70
2022/06/09 06:19:13;;;;;;;10.63;1.83;;;;;;;17.97;71.92;100300.50;5080219;28;20207;-73
2022/06/09 06:21:42;;;;;;;9.83;1.87;;;;;;;17.95;71.12;100306.06;5082286;28;20202;-72
2022/06/09 06:24:11;;;;;;;11.00;2.17;;;;;;;17.89;70.76;100308.72;5084977;28;20286;-69
2022/06/09 06:26:39;;;;;;;8.40;2.53;;;;;;;17.88;71.53;100317.78;5082064;28;20321;-70
2022/06/09 06:29:17;;;;;;;8.00;1.60;;;;;;;17.81;70.06;100322.28;5080042;28;20250;-70
2022/06/09 06:31:45;;;;;;;6.83;1.20;;;;;;;17.78;69.64;100328.03;5085117;28;20225;-70
2022/06/09 06:34:14;;;;;;;5.47;1.60;;;;;;;17.74;68.74;100332.16;5082834;28;20252;-70
2022/06/09 06:36:41;;;;;;;7.77;2.03;;;;;;;17.71;69.18;100340.59;5086273;28;20337;-70
2022/06/09 06:39:09;;;;;;;4.43;1.43;;;;;;;17.70;69.82;100346.97;5084231;28;20603;-69
2022/06/09 06:41:38;;;;;;;3.97;1.40;;;;;;;17.67;69.49;100351.72;5084007;28;20206;-70
2022/06/09 06:44:07;;;;;;;8.63;1.77;;;;;;;17.68;68.89;100365.94;5084404;28;20230;-70
2022/06/09 06:46:36;;;;;;;11.37;2.20;;;;;;;17.68;67.47;100366.78;5090218;28;20213;-70
2022/06/09 06:49:05;;;;;;;6.87;1.50;;;;;;;17.74;67.50;100367.84;5093568;28;20210;-69
2022/06/09 06:51:33;;;;;;;5.60;1.40;;;;;;;17.78;67.08;100368.28;5089514;28;20293;-70
2022/06/09 06:54:04;;;;;;;6.77;1.50;;;;;;;17.82;67.63;100366.88;5094008;28;20207;-69
2022/06/09 06:56:37;;;;;;;7.53;1.73;;;;;;;17.80;67.79;100369.75;5090731;28;20774;-70
2022/06/09 06:59:05;;;;;;;7.93;1.80;;;;;;;17.75;67.69;100379.41;5093826;28;20219;-70
2022/06/09 07:01:39;;;;;;;9.20;1.87;;;;;;;17.73;68.97;100386.81;5095086;28;20297;-69
2022/06/09 07:04:07;;;;;;;7.23;1.50;;;;;;;17.72;67.75;100385.16;5091764;28;20662;-69
2022/06/09 07:06:35;;;;;;;5.47;1.80;;;;;;;17.67;67.89;100386.59;5093828;28;20675;-69
2022/06/09 07:09:03;;;;;;;6.63;1.50;;;;;;;17.70;67.97;100390.72;5107077;28;20210;-69
2022/06/09 07:11:31;;;;;;;6.87;1.70;;;;;;;17.72;67.59;100388.66;5092161;28;20317;-70
2022/06/09 07:14:01;;;;;;;6.03;1.70;;;;;;;17.68;68.24;100395.44;5090360;28;20654;-69
2022/06/09 07:16:29;;;;;;;9.27;2.00;;;;;;;17.64;69.22;100389.66;5090030;28;20223;-70
2022/06/09 07:19:16;;;;;;;7.37;1.43;;;;;;;17.66;68.56;100402.88;5091723;28;20267;-70
2022/06/09 07:21:44;;;;;;;7.77;1.63;;;;;;;17.66;68.16;100402.88;5091969;28;20651;-70
2022/06/09 07:24:13;;;;;;;5.80;1.20;;;;;;;17.66;67.31;100405.56;5094900;28;20467;-70
2022/06/09 07:26:41;;;;;;;7.47;1.73;;;;;;;17.67;68.29;100408.03;5096362;28;20206;-69
2022/06/09 07:29:09;;;;;;;4.80;1.70;;;;;;;17.70;68.64;100417.53;5089555;28;20230;-69
2022/06/09 07:31:37;;;;;;;8.40;1.50;;;;;;;17.69;68.68;100413.19;5098597;28;20224;-70
2022/06/09 07:34:05;;;;;;;6.67;1.77;;;;;;;17.68;68.55;100415.03;5092742;28;20274;-70
2022/06/09 07:36:34;;;;;;;7.97;1.90;;;;;;;17.72;67.86;100420.03;5095649;28;20309;-69
2022/06/09 07:39:04;;;;;;;8.80;1.87;;;;;;;17.71;68.53;100407.63;5089044;28;20734;-70
2022/06/09 07:41:31;;;;;;;7.63;1.97;;;;;;;17.71;68.46;100413.81;5098251;28;20324;-70
2022/06/09 07:44:01;;;;;;;8.43;1.87;;;;;;;17.71;68.09;100421.03;5096649;28;20298;-70
2022/06/09 07:46:29;;;;;;;6.57;1.50;;;;;;;17.66;67.72;100424.31;5097691;28;20205;-70
2022/06/09 07:48:57;;;;;;;9.63;1.70;;;;;;;17.63;67.57;100420.16;5096803;28;20498;-70
2022/06/09 07:51:26;;;;;;;8.17;1.57;;;;;;;17.64;67.54;100421.00;5096262;28;20227;-71
2022/06/09 07:53:56;;;;;;;5.87;1.53;;;;;;;17.59;67.24;100424.22;5098857;28;20337;-69
2022/06/09 07:56:24;;;;;;;4.43;1.40;;;;;;;17.58;66.72;100414.53;5093732;28;20250;-70
2022/06/09 07:58:52;;;;;;;8.87;2.17;;;;;;;17.63;66.72;100422.84;5097848;28;20232;-70
2022/06/09 08:01:22;;;;;;;6.83;1.63;;;;;;;17.71;66.17;100429.09;5090577;28;20345;-70
2022/06/09 08:03:50;;;;;;;6.13;1.50;;;;;;;17.71;67.20;100426.41;5096796;28;20234;-68
2022/06/09 08:06:18;;;;;;;10.13;2.50;;;;;;;17.82;66.94;100417.81;5088397;28;20207;-70
2022/06/09 08:08:56;;;;;;;11.27;2.17;;;;;;;17.89;67.35;100418.69;5096396;28;20213;-70
2022/06/09 08:11:28;;;;;;;6.10;1.80;;;;;;;17.97;66.75;100419.38;5091841;28;20234;-69
2022/06/09 08:13:58;;;;;;;7.27;1.80;;;;;;;18.12;67.03;100415.75;5090547;28;20230;-70
2022/06/09 08:16:26;;;;;;;6.73;1.60;;;;;;;18.29;66.83;100419.75;5092135;28;20208;-70
2022/06/09 08:18:54;;;;;;;9.27;1.77;;;;;;;18.28;66.31;100424.31;5095560;28;20210;-70
2022/06/09 08:21:23;;;;;;;9.67;2.13;;;;;;;18.38;65.62;100427.41;5095003;28;20350;-70
2022/06/09 08:24:09;;;;;;;7.53;1.70;;;;;;;18.45;65.34;100432.84;5093014;28;20217;-70
2022/06/09 08:26:39;;;;;;;6.03;1.73;;;;;;;18.56;65.33;100434.13;5090820;28;20259;-70
2022/06/09 08:29:07;;;;;;;5.50;1.33;;;;;;;18.59;64.57;100434.56;5090122;28;20227;-70
2022/06/09 08:31:35;;;;;;;6.13;1.80;;;;;;;18.66;63.81;100437.28;5088247;28;20643;-69
2022/06/09 08:34:04;;;;;;;6.73;1.40;;;;;;;18.72;64.31;100439.16;5083834;28;20219;-70
2022/06/09 08:36:31;;;;;;;8.73;1.60;;;;;;;18.79;63.19;100440.00;5095461;28;20211;-70
2022/06/09 08:38:59;;;;;;;4.87;1.50;;;;;;;18.82;63.69;100441.47;5091409;28;20253;-70
2022/06/09 08:41:39;;;;;;;7.80;1.70;;;;;;;19.09;62.63;100440.47;5090568;28;20310;-70
2022/06/09 08:44:18;;;;;;;4.97;1.50;;;;;;;19.21;62.48;100451.47;5094408;28;20748;-71
2022/06/09 08:46:54;;;;;;;8.57;1.90;;;;;;;19.27;63.34;100451.47;5087894;28;20287;-71
2022/06/09 08:49:32;;;;;;;11.17;2.00;;;;;;;19.21;61.77;100459.53;5088256;28;20745;-71
2022/06/09 08:52:05;;;;;;;5.27;1.53;;;;;;;19.21;62.02;100456.84;5067251;28;20674;-73
2022/06/09 08:54:35;;;;;;;5.40;1.50;;;;;;;19.38;62.37;100452.72;5065018;28;20233;-71
2022/06/09 08:57:12;;;;;;;7.30;1.70;;;;;;;19.53;61.94;100448.00;5066306;28;20232;-70
2022/06/09 08:59:44;;;;;;;7.30;1.63;;;;;;;19.66;61.41;100458.78;5069404;28;20716;-70
2022/06/09 09:02:26;;;;;;;4.77;1.23;;;;;;;19.73;59.80;100453.38;5068327;28;20227;-71
2022/06/09 09:05:04;;;;;;;7.43;1.80;;;;;;;19.68;59.27;100459.41;5067038;28;20231;-71
2022/06/09 09:07:36;;;;;;;8.40;1.90;;;;;;;19.57;60.04;100460.00;5068637;28;20690;-72
2022/06/09 09:10:17;;;;;;;8.43;2.40;;;;;;;19.53;60.42;100464.13;5063999;28;20229;-72
2022/06/09 09:12:54;;;;;;;10.93;2.43;;;;;;;19.38;62.72;100460.78;5068038;28;20294;-73
2022/06/09 09:15:32;;;;;;;10.70;2.27;;;;;;;19.31;62.66;100466.16;5066993;28;20684;-71
2022/06/09 09:18:19;;;;;;;6.27;1.87;;;;;;;19.16;62.63;100463.69;5068043;28;20215;-71
2022/06/09 09:21:00;;;;;;;8.47;1.83;;;;;;;19.11;63.57;100465.28;5063479;28;20631;-70
2022/06/09 09:23:33;;;;;;;8.47;2.00;;;;;;;19.05;64.22;100461.56;5068573;28;20238;-71
2022/06/09 09:26:09;;;;;;;8.77;2.00;;;;;;;19.10;64.00;100461.78;5067616;28;20239;-71
2022/06/09 09:28:48;;;;;;;10.13;2.10;;;;;;;19.20;63.76;100479.38;5063954;28;20199;-71
2022/06/09 09:31:33;;;;;;;9.03;1.50;;;;;;;19.29;63.17;100475.47;5061409;28;20242;-70
2022/06/09 09:34:03;;;;;;;10.87;1.77;;;;;;;19.29;62.81;100473.59;5066856;28;20282;-71
2022/06/09 09:36:35;;;;;;;7.73;1.60;;;;;;;19.26;61.63;100483.97;5066540;28;20306;-71
2022/06/09 09:39:12;;;;;;;5.27;1.70;;;;;;;19.28;62.16;100479.19;5065960;28;20218;-71
2022/06/09 09:41:41;;;;;;;6.97;2.33;;;;;;;19.24;62.50;100480.63;5066410;28;20299;-72
2022/06/09 09:44:18;;;;;;;8.03;2.13;;;;;;;19.27;62.09;100490.97;5065341;28;20266;-72
2022/06/09 09:46:52;;;;;;;7.70;1.77;;;;;;;19.32;61.12;100493.88;5068776;28;20621;-70
2022/06/09 09:49:32;;;;;;;6.33;1.60;;;;;;;19.56;60.14;100487.94;5069532;28;20338;-69
2022/06/09 09:52:01;;;;;;;6.37;1.53;;;;;;;19.74;60.48;100488.16;5090120;28;20226;-70
2022/06/09 09:54:32;;;;;;;6.97;1.50;;;;;;;19.84;59.92;100495.81;5086354;28;20266;-70
2022/06/09 09:57:07;;;;;;;6.90;1.27;;;;;;;19.83;60.79;100492.28;5092327;28;20238;-70
2022/06/09 09:59:45;;;;;;;7.57;1.93;;;;;;;19.81;61.30;100494.34;5088348;28;20243;-68
2022/06/09 10:08:38;;;;;;;5.83;1.40;;;;;;;19.72;59.70;100509.03;5089083;28;20487;-70
2022/06/09 10:14:54;;;;;;;4.27;1.40;;;;;;;19.91;59.66;100510.91;5091308;28;20246;-68
2022/06/09 10:17:37;;;;;;;6.20;1.50;;;;;;;19.99;59.46;100511.72;5092444;28;20206;-69
2022/06/09 10:20:33;;;;;;;6.00;1.20;;;;;;;19.98;59.02;100510.06;5090436;28;20267;-68
2022/06/09 10:23:21;;;;;;;3.97;1.20;;;;;;;19.96;58.63;100514.84;5088191;28;20268;-69
2022/06/09 10:25:58;;;;;;;6.57;1.83;;;;;;;19.91;58.26;100518.97;5094592;28;20284;-69
2022/06/09 10:28:35;;;;;;;5.53;1.30;;;;;;;19.87;58.63;100520.44;5083669;28;20294;-69
2022/06/09 10:31:10;;;;;;;5.93;1.40;;;;;;;19.85;58.96;100519.81;5094450;28;20738;-69
2022/06/09 10:33:48;;;;;;;4.73;1.37;;;;;;;19.89;58.65;100518.34;5088192;28;20214;-70
2022/06/09 10:36:21;;;;;;;7.10;1.60;;;;;;;19.98;58.68;100523.53;5087568;28;20242;-69
2022/06/09 10:38:54;;;;;;;4.50;1.30;;;;;;;20.09;57.94;100525.59;5090134;28;20233;-70
2022/06/09 10:41:34;;;;;;;9.40;1.70;;;;;;;20.13;57.92;100524.97;5098274;28;20296;-69
2022/06/09 10:44:10;;;;;;;6.37;1.50;;;;;;;20.15;57.44;100533.66;5089643;28;20206;-70
2022/06/09 10:46:42;;;;;;;4.47;1.13;;;;;;;20.13;56.40;100540.31;5088377;28;20561;-69
2022/06/09 10:55:19;;;;;;;8.93;1.90;;;;;;;19.96;56.87;100555.22;5086686;28;20203;-69
2022/06/09 10:57:57;;;;;;;3.97;1.60;;;;;;;19.90;56.89;100546.94;5089186;28;20202;-70
2022/06/09 11:00:29;;;;;;;7.03;1.87;;;;;;;19.86;57.86;100553.78;5082955;28;20727;-70
2022/06/09 11:03:00;;;;;;;4.07;1.00;;;;;;;19.81;58.22;100550.84;5087152;28;20383;-67
2022/06/09 11:05:40;;;;;;;8.33;1.70;;;;;;;19.82;58.92;100560.59;5088869;28;20227;-67
2022/06/09 11:08:17;;;;;;;7.10;1.70;;;;;;;19.79;58.31;100555.59;5087292;28;20214;-70
2022/06/09 11:10:55;;;;;;;6.40;2.07;;;;;;;19.81;58.64;100556.22;5080922;28;20217;-72
2022/06/09 11:13:48;;;;;;;7.20;1.70;;;;;;;19.85;58.56;100557.50;5092865;28;20206;-70
2022/06/09 11:16:22;;;;;;;6.40;2.13;;;;;;;19.91;58.59;100567.41;5090862;28;20245;-72
2022/06/09 11:19:08;;;;;;;5.20;1.43;;;;;;;19.91;59.11;100564.72;5087457;28;20246;-70
2022/06/09 11:21:45;;;;;;;8.60;1.80;;;;;;;19.91;58.97;100556.66;5084637;28;20240;-72
2022/06/09 11:24:32;;;;;;;7.17;1.23;;;;;;;19.89;58.33;100566.78;5088520;28;20622;-70
2022/06/09 11:27:10;;;;;;;5.73;1.40;;;;;;;19.87;58.27;100560.81;5082497;28;20662;-71
2022/06/09 11:29:51;;;;;;;9.20;1.87;;;;;;;19.89;58.79;100552.50;5080306;28;20342;-71
2022/06/09 11:32:25;;;;;;;5.90;1.50;;;;;;;19.95;58.83;100569.72;5087954;28;20202;-71
2022/06/09 11:35:08;;;;;;;7.10;1.60;;;;;;;19.96;59.04;100556.06;5091301;28;20203;-71
2022/06/09 11:37:58;;;;;;;6.27;1.10;;;;;;;20.01;59.01;100558.94;5086940;28;20722;-70
2022/06/09 11:40:38;;;;;;;6.53;2.10;;;;;;;20.11;58.64;100562.06;5091146;28;20234;-71
2022/06/09 11:43:35;;;;;;;6.37;1.53;;;;;;;20.25;58.47;100554.78;5096706;28;20218;-72
2022/06/09 11:46:09;;;;;;;4.60;1.47;;;;;;;20.40;58.38;100551.91;5091479;28;20208;-69
2022/06/09 11:48:41;;;;;;;5.70;1.83;;;;;;;20.56;57.86;100552.28;5092612;28;20651;-71
2022/06/09 11:51:10;;;;;;;8.63;2.53;;;;;;;20.72;57.13;100552.84;5091152;28;20271;-70
2022/06/09 11:53:43;;;;;;;11.03;2.20;;;;;;;20.84;56.98;100557.38;5086489;28;20293;-70
2022/06/09 11:56:36;;;;;;;5.67;1.90;;;;;;;21.03;55.17;100547.53;5092613;28;20569;-71
2022/06/09 11:59:15;;;;;;;4.07;1.20;;;;;;;21.20;54.84;100543.31;5094763;28;20574;-70
2022/06/09 12:02:08;;;;;;;7.70;1.43;;;;;;;21.36;54.32;100548.25;5084291;28;20617;-70
2022/06/09 12:05:02;;;;;;;8.40;1.93;;;;;;;21.41;53.00;100552.97;5091886;28;20208;-70
2022/06/09 12:07:45;;;;;;;9.23;1.53;;;;;;;21.49;52.84;100559.97;5086333;28;20722;-69
2022/06/09 12:10:42;;;;;;;9.63;1.90;;;;;;;21.54;52.29;100561.00;5089043;28;20833;-70
2022/06/09 12:13:25;;;;;;;7.33;1.93;;;;;;;21.39;52.87;100553.19;5081937;28;20238;-71